createdAt,value
2023-05-05T00:01:03.624Z,9.56
2023-05-05T00:03:33.567Z,10.04
2023-05-05T00:06:01.496Z,10.59
2023-05-05T00:08:29.363Z,10.77
2023-05-05T00:10:57.757Z,10.64
2023-05-05T00:13:25.792Z,10.50
2023-05-05T00:15:54.132Z,10.79
2023-05-05T00:18:22.299Z,10.98
2023-05-05T00:20:50.719Z,11.00
2023-05-05T00:23:19.757Z,11.06
2023-05-05T00:25:47.696Z,11.20
2023-05-05T00:28:15.495Z,11.24
2023-05-05T00:30:43.477Z,11.22
2023-05-05T00:33:11.480Z,11.14
2023-05-05T00:35:39.306Z,11.17
2023-05-05T00:38:07.527Z,11.22
2023-05-05T00:40:36.105Z,11.15
2023-05-05T00:43:04.009Z,11.01
2023-05-05T00:45:31.876Z,11.02
2023-05-05T00:48:01.941Z,10.98
2023-05-05T00:50:31.516Z,10.82
2023-05-05T00:53:03.446Z,10.65
2023-05-05T00:55:33.109Z,10.47
2023-05-05T00:58:04.294Z,10.30
2023-05-05T01:00:32.404Z,10.22
2023-05-05T01:03:00.685Z,10.12
2023-05-05T01:05:44.947Z,10.13
2023-05-05T01:08:27.487Z,10.08
2023-05-05T01:11:26.340Z,9.98
2023-05-05T01:14:20.839Z,9.89
2023-05-05T01:17:04.981Z,9.90
2023-05-05T01:19:54.702Z,10.13
2023-05-05T01:22:32.339Z,10.27
2023-05-05T01:25:12.338Z,10.21
2023-05-05T01:28:29.299Z,10.04
2023-05-05T01:31:17.778Z,9.83
2023-05-05T01:33:55.269Z,9.97
2023-05-05T01:36:36.294Z,9.77
2023-05-05T01:39:08.470Z,9.58
2023-05-05T01:41:47.374Z,9.89
2023-05-05T01:44:20.034Z,10.33
2023-05-05T01:46:52.055Z,10.64
2023-05-05T01:49:20.678Z,10.63
2023-05-05T01:51:50.046Z,9.90
2023-05-05T01:54:19.365Z,9.11
2023-05-05T01:56:50.749Z,8.64
2023-05-05T01:59:21.857Z,9.07
2023-05-05T02:01:52.423Z,9.58
2023-05-05T02:04:22.994Z,9.71
2023-05-05T02:06:53.499Z,9.49
2023-05-05T02:09:25.433Z,9.39
2023-05-05T02:11:55.524Z,9.24
2023-05-05T02:14:26.930Z,9.04
2023-05-05T02:16:58.175Z,8.87
2023-05-05T02:19:34.482Z,8.80
2023-05-05T02:22:03.263Z,8.91
2023-05-05T02:24:31.587Z,9.01
2023-05-05T02:27:03.908Z,9.09
2023-05-05T02:29:39.252Z,9.14
2023-05-05T02:32:23.836Z,9.49
2023-05-05T02:34:54.490Z,9.84
2023-05-05T02:37:28.880Z,10.03
2023-05-05T02:40:05.030Z,10.31
2023-05-05T02:42:37.392Z,10.46
2023-05-05T02:45:12.534Z,10.30
2023-05-05T02:47:40.467Z,9.48
2023-05-05T02:50:09.818Z,8.71
2023-05-05T02:52:38.341Z,8.13
2023-05-05T02:55:07.379Z,7.69
2023-05-05T02:57:48.655Z,7.53
2023-05-05T03:00:38.375Z,8.18
2023-05-05T03:03:22.390Z,9.19
2023-05-05T03:06:13.912Z,9.56
2023-05-05T03:09:11.226Z,8.82
2023-05-05T03:11:47.117Z,8.07
2023-05-05T03:14:19.286Z,7.61
2023-05-05T03:16:49.476Z,7.26
2023-05-05T03:19:20.470Z,7.01
2023-05-05T03:21:48.690Z,6.81
2023-05-05T03:24:19.505Z,6.79
2023-05-05T03:26:49.546Z,7.31
2023-05-05T03:29:17.688Z,8.13
2023-05-05T03:31:45.915Z,8.77
2023-05-05T03:34:13.760Z,8.45
2023-05-05T03:36:41.670Z,7.88
2023-05-05T03:39:09.473Z,7.43
2023-05-05T03:41:37.333Z,7.11
2023-05-05T03:44:05.256Z,6.89
2023-05-05T03:46:33.031Z,6.79
2023-05-05T03:49:03.441Z,6.85
2023-05-05T03:51:31.455Z,7.05
2023-05-05T03:53:59.196Z,7.34
2023-05-05T03:56:27.137Z,7.62
2023-05-05T03:58:54.992Z,7.67
2023-05-05T04:01:23.664Z,7.87
2023-05-05T04:03:52.040Z,8.30
2023-05-05T04:06:20.145Z,8.75
2023-05-05T04:08:48.040Z,9.09
2023-05-05T04:11:16.225Z,9.37
2023-05-05T04:13:44.096Z,9.64
2023-05-05T04:16:12.214Z,9.87
2023-05-05T04:18:40.002Z,10.12
2023-05-05T04:21:07.863Z,10.26
2023-05-05T04:23:35.815Z,10.34
2023-05-05T04:26:03.680Z,10.40
2023-05-05T04:28:31.481Z,10.53
2023-05-05T04:31:01.245Z,10.77
2023-05-05T04:33:29.156Z,11.10
2023-05-05T04:35:57.023Z,11.01
2023-05-05T04:38:24.991Z,10.40
2023-05-05T04:40:52.835Z,9.61
2023-05-05T04:43:21.090Z,8.89
2023-05-05T04:45:55.953Z,8.34
2023-05-05T04:48:23.940Z,7.96
2023-05-05T04:50:51.955Z,7.71
2023-05-05T04:53:19.749Z,7.54
2023-05-05T04:55:47.613Z,7.38
2023-05-05T04:58:15.439Z,7.25
2023-05-05T05:00:43.610Z,7.22
2023-05-05T05:03:11.686Z,7.35
2023-05-05T05:05:39.564Z,7.55
2023-05-05T05:08:07.380Z,8.10
2023-05-05T05:10:36.103Z,8.77
2023-05-05T05:13:04.046Z,9.60
2023-05-05T05:15:31.915Z,10.44
2023-05-05T05:17:59.706Z,11.09
2023-05-05T05:20:27.541Z,11.38
2023-05-05T05:22:55.433Z,11.37
2023-05-05T05:25:24.402Z,11.09
2023-05-05T05:28:02.187Z,10.93
2023-05-05T05:30:37.267Z,10.61
2023-05-05T05:33:05.122Z,10.18
2023-05-05T05:35:32.996Z,9.86
2023-05-05T05:38:00.834Z,9.53
2023-05-05T05:40:28.757Z,9.08
2023-05-05T05:42:56.515Z,8.66
2023-05-05T05:45:24.341Z,8.33
2023-05-05T05:47:52.285Z,8.05
2023-05-05T05:50:21.351Z,7.90
2023-05-05T05:52:49.388Z,7.85
2023-05-05T05:55:17.350Z,7.78
2023-05-05T05:57:45.090Z,7.69
2023-05-05T06:00:14.016Z,7.63
2023-05-05T06:02:42.658Z,7.64
2023-05-05T06:05:11.158Z,7.66
2023-05-05T06:07:39.053Z,7.66
2023-05-05T06:10:22.924Z,7.64
2023-05-05T06:12:54.407Z,7.62
2023-05-05T06:15:22.363Z,7.66
2023-05-05T06:17:50.195Z,7.74
2023-05-05T06:20:18.713Z,7.82
2023-05-05T06:22:46.567Z,7.81
2023-05-05T06:25:14.514Z,7.77
2023-05-05T06:27:42.401Z,7.79
2023-05-05T06:30:11.031Z,7.80
2023-05-05T06:32:38.860Z,7.78
2023-05-05T06:35:07.900Z,7.80
2023-05-05T06:37:36.120Z,7.77
2023-05-05T06:40:04.897Z,7.74
2023-05-05T06:42:33.238Z,7.69
2023-05-05T06:45:01.717Z,7.71
2023-05-05T06:47:29.553Z,7.75
2023-05-05T06:49:57.368Z,7.79
2023-05-05T06:52:26.367Z,7.84
2023-05-05T06:54:54.194Z,7.85
2023-05-05T06:57:21.944Z,7.89
2023-05-05T06:59:49.819Z,7.96
2023-05-05T07:02:17.623Z,7.95
2023-05-05T07:04:45.517Z,7.96
2023-05-05T07:07:13.360Z,8.03
2023-05-05T07:09:41.752Z,8.10
2023-05-05T07:12:09.547Z,8.20
2023-05-05T07:14:37.307Z,8.32
2023-05-05T07:17:05.567Z,8.41
2023-05-05T07:19:33.627Z,8.42
2023-05-05T07:22:01.618Z,8.47
2023-05-05T07:24:29.502Z,8.53
2023-05-05T07:27:03.361Z,8.53
2023-05-05T07:29:31.702Z,8.54
2023-05-05T07:31:59.551Z,8.66
2023-05-05T07:34:27.874Z,8.90
2023-05-05T07:36:56.632Z,9.06
2023-05-05T07:39:24.494Z,9.11
2023-05-05T07:41:52.454Z,9.03
2023-05-05T07:44:20.734Z,8.93
2023-05-05T07:46:48.795Z,8.91
2023-05-05T07:49:16.797Z,8.88
2023-05-05T07:51:45.176Z,8.85
2023-05-05T07:54:13.177Z,8.77
2023-05-05T07:56:41.060Z,8.74
2023-05-05T07:59:09.013Z,8.77
2023-05-05T08:01:37.333Z,8.70
2023-05-05T08:04:05.766Z,8.64
2023-05-05T08:06:34.012Z,8.62
2023-05-05T08:09:02.895Z,8.55
2023-05-05T08:11:30.707Z,8.50
2023-05-05T08:13:58.812Z,8.48
2023-05-05T08:16:26.658Z,8.48
2023-05-05T08:18:54.515Z,8.56
2023-05-05T08:21:22.551Z,8.66
2023-05-05T08:23:50.571Z,8.71
2023-05-05T08:26:18.375Z,8.80
2023-05-05T08:28:47.143Z,8.89
2023-05-05T08:31:16.134Z,9.00
2023-05-05T08:33:44.019Z,8.97
2023-05-05T08:36:11.936Z,8.78
2023-05-05T08:38:39.773Z,8.61
2023-05-05T08:41:13.218Z,8.49
2023-05-05T08:43:44.384Z,8.31
2023-05-05T08:46:14.792Z,8.20
2023-05-05T08:48:45.140Z,8.27
2023-05-05T08:51:19.802Z,8.37
2023-05-05T08:54:20.597Z,8.38
2023-05-05T08:56:53.274Z,8.40
2023-05-05T08:59:25.248Z,8.43
2023-05-05T09:01:55.874Z,8.44
2023-05-05T09:04:27.068Z,8.48
2023-05-05T09:07:01.536Z,8.62
2023-05-05T09:09:34.643Z,8.76
2023-05-05T09:12:03.087Z,8.91
2023-05-05T09:17:27.504Z,9.06
2023-05-05T09:20:04.845Z,9.13
2023-05-05T09:22:42.096Z,9.19
2023-05-05T09:25:12.778Z,9.23
2023-05-05T09:27:45.913Z,9.24
2023-05-05T09:30:24.556Z,9.16
2023-05-05T09:32:55.332Z,9.03
2023-05-05T09:35:23.762Z,8.95
2023-05-05T09:37:51.638Z,8.90
2023-05-05T09:40:21.485Z,8.81
2023-05-05T09:43:02.720Z,8.68
2023-05-05T09:45:30.780Z,8.61
2023-05-05T09:48:00.399Z,8.64
2023-05-05T09:50:31.147Z,8.62
2023-05-05T09:53:02.127Z,8.67
2023-05-05T09:55:33.458Z,8.80
2023-05-05T09:58:19.557Z,8.88
2023-05-05T10:00:47.839Z,8.95
2023-05-05T10:03:16.412Z,8.98
2023-05-05T10:05:59.842Z,9.00
2023-05-05T10:08:33.886Z,8.96
2023-05-05T10:11:07.022Z,8.92
2023-05-05T10:13:38.264Z,8.87
2023-05-05T10:16:09.777Z,8.90
2023-05-05T10:18:45.978Z,8.97
2023-05-05T10:21:19.123Z,9.07
2023-05-05T10:24:03.003Z,9.04
2023-05-05T10:26:38.146Z,8.99
2023-05-05T10:29:15.093Z,8.97
2023-05-05T10:31:50.162Z,9.05
2023-05-05T10:34:33.255Z,9.14
2023-05-05T10:37:01.542Z,9.18
2023-05-05T10:39:29.554Z,9.25
2023-05-05T10:42:02.482Z,9.31
2023-05-05T10:44:34.420Z,9.34
2023-05-05T10:47:03.021Z,9.43
2023-05-05T10:49:43.085Z,9.48
2023-05-05T10:52:32.354Z,9.49
2023-05-05T10:55:30.487Z,9.44
2023-05-05T10:57:58.398Z,9.24
2023-05-05T11:00:38.430Z,9.05
2023-05-05T11:03:18.492Z,8.98
2023-05-05T11:06:07.815Z,8.94
2023-05-05T11:08:45.767Z,8.96
2023-05-05T11:11:13.806Z,9.04
2023-05-05T11:13:42.072Z,9.04
2023-05-05T11:16:47.940Z,9.04
2023-05-05T11:19:44.519Z,9.07
2023-05-05T11:22:12.467Z,9.00
2023-05-05T11:24:40.815Z,8.89
2023-05-05T11:27:08.866Z,8.77
2023-05-05T11:30:09.384Z,8.72
2023-05-05T11:32:37.580Z,8.77
2023-05-05T11:35:07.272Z,8.77
2023-05-05T11:37:37.581Z,8.89
2023-05-05T11:40:24.130Z,9.02
2023-05-05T11:43:06.002Z,9.07
2023-05-05T11:45:34.709Z,9.02
2023-05-05T11:48:28.684Z,8.83
2023-05-05T11:50:58.150Z,8.59
2023-05-05T11:53:26.227Z,8.50
2023-05-05T11:56:10.950Z,8.47
2023-05-05T11:58:38.851Z,8.53
2023-05-05T12:01:08.656Z,8.57
2023-05-05T12:03:38.347Z,8.50
2023-05-05T12:06:08.382Z,8.50
2023-05-05T12:08:41.423Z,8.49
2023-05-05T12:11:11.357Z,8.49
2023-05-05T12:13:39.244Z,8.52
2023-05-05T12:16:12.938Z,8.62
2023-05-05T12:18:41.683Z,8.68
2023-05-05T12:21:20.617Z,8.61
2023-05-05T12:23:48.474Z,8.52
2023-05-05T12:26:32.551Z,8.43
2023-05-05T12:29:01.224Z,8.43
2023-05-05T12:31:39.245Z,8.40
2023-05-05T12:34:10.476Z,8.37
2023-05-05T12:36:39.713Z,8.39
2023-05-05T12:39:07.491Z,8.35
2023-05-05T12:41:35.974Z,8.24
2023-05-05T12:44:04.500Z,8.06
2023-05-05T12:46:46.122Z,7.97
2023-05-05T12:49:14.473Z,8.04
2023-05-05T12:51:56.818Z,8.19
2023-05-05T12:54:25.214Z,8.23
2023-05-05T12:56:53.054Z,8.15
2023-05-05T12:59:24.230Z,8.08
2023-05-05T13:01:57.400Z,8.06
2023-05-05T13:04:28.581Z,8.08
2023-05-05T13:07:14.997Z,8.09
2023-05-05T13:09:43.093Z,8.06
2023-05-05T13:12:13.708Z,8.01
2023-05-05T13:14:41.977Z,7.99
2023-05-05T13:17:11.498Z,7.99
2023-05-05T13:19:46.524Z,7.99
2023-05-05T13:22:14.605Z,7.96
2023-05-05T13:24:51.846Z,7.96
2023-05-05T13:27:21.489Z,7.93
2023-05-05T13:29:49.303Z,7.83
2023-05-05T13:32:17.203Z,7.76
2023-05-05T13:34:45.010Z,7.76
2023-05-05T13:37:12.848Z,7.87
2023-05-05T13:39:40.803Z,7.91
2023-05-05T13:42:08.816Z,7.90
2023-05-05T13:44:36.822Z,7.92
2023-05-05T13:47:04.851Z,7.96
2023-05-05T13:49:32.632Z,7.93
2023-05-05T13:52:00.548Z,7.84
2023-05-05T13:54:28.400Z,7.75
2023-05-05T13:56:56.254Z,7.75
2023-05-05T13:59:25.980Z,7.81
2023-05-05T14:01:54.129Z,7.81
2023-05-05T14:04:21.976Z,7.76
2023-05-05T14:06:49.829Z,7.75
2023-05-05T14:09:17.666Z,7.73
2023-05-05T14:11:45.496Z,7.80
2023-05-05T14:14:13.362Z,7.88
2023-05-05T14:16:41.107Z,7.99
2023-05-05T14:19:09.055Z,8.09
2023-05-05T14:21:36.830Z,8.08
2023-05-05T14:24:04.972Z,8.05
2023-05-05T14:26:32.738Z,8.05
2023-05-05T14:29:00.640Z,8.07
2023-05-05T14:31:28.853Z,8.05
2023-05-05T14:33:56.626Z,8.03
2023-05-05T14:36:27.219Z,7.99
2023-05-05T14:38:55.058Z,8.00
2023-05-05T14:41:23.057Z,7.97
2023-05-05T14:43:50.810Z,7.97
2023-05-05T14:46:19.005Z,8.03
2023-05-05T14:48:47.426Z,8.09
2023-05-05T14:51:16.036Z,8.16
2023-05-05T14:53:44.014Z,8.26
2023-05-05T14:56:14.405Z,8.31
2023-05-05T14:58:42.234Z,8.33
2023-05-05T15:01:10.073Z,8.35
2023-05-05T15:03:38.008Z,8.30
2023-05-05T15:06:08.599Z,8.23
2023-05-05T15:08:39.086Z,8.12
2023-05-05T15:11:07.097Z,8.06
2023-05-05T15:13:38.657Z,8.05
2023-05-05T15:16:08.022Z,8.03
2023-05-05T15:18:37.678Z,8.01
2023-05-05T15:21:06.373Z,7.94
2023-05-05T15:23:35.380Z,7.85
2023-05-05T15:26:04.593Z,7.76
2023-05-05T15:28:32.663Z,7.66
2023-05-05T15:31:03.386Z,7.55
2023-05-05T15:33:31.277Z,7.46
2023-05-05T15:35:59.578Z,7.41
2023-05-05T15:38:29.227Z,7.36
2023-05-05T15:40:57.125Z,7.33
2023-05-05T15:43:25.580Z,7.33
2023-05-05T15:45:54.865Z,7.36
2023-05-05T15:48:23.759Z,7.37
2023-05-05T15:50:51.746Z,7.36
2023-05-05T15:53:19.577Z,7.30
2023-05-05T15:55:47.375Z,7.24
2023-05-05T15:58:15.189Z,7.20
2023-05-05T16:00:43.095Z,7.18
2023-05-05T16:03:11.719Z,7.17
2023-05-05T16:05:39.795Z,7.19
2023-05-05T16:08:10.041Z,7.25
2023-05-05T16:10:38.146Z,7.27
2023-05-05T16:13:06.332Z,7.28
2023-05-05T16:15:36.032Z,7.27
2023-05-05T16:18:05.047Z,7.23
2023-05-05T16:20:33.844Z,7.22
2023-05-05T16:23:02.078Z,7.26
2023-05-05T16:25:29.834Z,7.34
2023-05-05T16:27:57.843Z,7.41
2023-05-05T16:30:26.206Z,7.44
2023-05-05T16:32:54.900Z,7.46
2023-05-05T16:35:23.881Z,7.49
2023-05-05T16:37:52.962Z,7.44
2023-05-05T16:40:20.763Z,7.36
2023-05-05T16:42:49.180Z,7.34
2023-05-05T16:45:16.986Z,7.43
2023-05-05T16:47:45.712Z,7.51
2023-05-05T16:50:13.871Z,7.53
2023-05-05T16:52:41.643Z,7.57
2023-05-05T16:55:09.846Z,7.59
2023-05-05T16:57:38.151Z,7.49
2023-05-05T17:00:08.696Z,7.31
2023-05-05T17:02:36.981Z,7.15
2023-05-05T17:05:06.005Z,7.03
2023-05-05T17:07:34.565Z,6.94
2023-05-05T17:10:02.594Z,6.89
2023-05-05T17:12:30.583Z,6.82
2023-05-05T17:14:58.390Z,6.75
2023-05-05T17:17:26.383Z,6.67
2023-05-05T17:19:54.337Z,6.56
2023-05-05T17:22:22.254Z,6.48
2023-05-05T17:24:50.945Z,6.42
2023-05-05T17:27:18.875Z,6.36
2023-05-05T17:29:46.765Z,6.35
2023-05-05T17:32:15.098Z,6.34
2023-05-05T17:34:43.018Z,6.31
2023-05-05T17:37:11.211Z,6.30
2023-05-05T17:39:39.025Z,6.28
2023-05-05T17:42:06.787Z,6.28
2023-05-05T17:44:34.638Z,6.26
2023-05-05T17:47:04.051Z,6.26
2023-05-05T17:49:31.904Z,6.25
2023-05-05T17:51:59.820Z,6.23
2023-05-05T17:54:37.569Z,6.20
2023-05-05T17:57:05.448Z,6.17
2023-05-05T17:59:33.330Z,6.15
2023-05-05T18:02:01.340Z,6.13
2023-05-05T18:04:29.250Z,6.11
2023-05-05T18:06:57.583Z,6.31
2023-05-05T18:09:26.857Z,7.24
2023-05-05T18:11:54.959Z,8.14
2023-05-05T18:14:23.951Z,8.53
2023-05-05T18:16:52.516Z,8.15
2023-05-05T18:19:23.474Z,7.61
2023-05-05T18:21:53.228Z,7.16
2023-05-05T18:24:21.355Z,6.82
2023-05-05T18:26:51.982Z,6.54
2023-05-05T18:29:22.007Z,6.45
2023-05-05T18:31:53.221Z,6.86
2023-05-05T18:34:21.497Z,7.30
2023-05-05T18:36:53.614Z,7.84
2023-05-05T18:39:21.616Z,8.45
2023-05-05T18:41:49.768Z,8.74
2023-05-05T18:44:19.781Z,8.23
2023-05-05T18:46:48.267Z,7.61
2023-05-05T18:49:16.458Z,7.13
2023-05-05T18:51:44.313Z,6.90
2023-05-05T18:54:12.257Z,7.35
2023-05-05T18:56:40.146Z,7.90
2023-05-05T18:59:08.067Z,8.35
2023-05-05T19:01:35.900Z,8.71
2023-05-05T19:04:06.924Z,8.79
2023-05-05T19:06:39.176Z,8.23
2023-05-05T19:09:07.061Z,7.64
2023-05-05T19:11:34.875Z,7.28
2023-05-05T19:14:02.712Z,7.57
2023-05-05T19:16:30.894Z,8.06
2023-05-05T19:19:00.953Z,8.45
2023-05-05T19:21:28.821Z,8.66
2023-05-05T19:23:59.297Z,8.76
2023-05-05T19:26:27.417Z,8.93
2023-05-05T19:28:55.262Z,9.01
2023-05-05T19:31:27.874Z,9.14
2023-05-05T19:34:01.615Z,9.37
2023-05-05T19:36:32.320Z,9.44
2023-05-05T19:39:04.537Z,8.77
2023-05-05T19:41:35.704Z,8.06
2023-05-05T19:44:04.106Z,7.60
2023-05-05T19:46:32.075Z,7.77
2023-05-05T19:48:59.983Z,8.18
2023-05-05T19:51:28.065Z,8.46
2023-05-05T19:53:55.994Z,8.54
2023-05-05T19:56:24.174Z,8.53
2023-05-05T19:58:53.095Z,8.50
2023-05-05T20:01:21.033Z,8.39
2023-05-05T20:03:49.047Z,8.19
2023-05-05T20:06:17.220Z,8.02
2023-05-05T20:08:45.077Z,7.92
2023-05-05T20:11:16.277Z,7.92
2023-05-05T20:13:44.318Z,7.98
2023-05-05T20:16:12.555Z,8.02
2023-05-05T20:18:40.653Z,8.09
2023-05-05T20:21:08.567Z,8.18
2023-05-05T20:23:37.321Z,8.18
2023-05-05T20:26:05.206Z,8.14
2023-05-05T20:28:33.191Z,8.03
2023-05-05T20:31:01.152Z,7.90
2023-05-05T20:33:29.385Z,7.82
2023-05-05T20:35:57.473Z,7.93
2023-05-05T20:38:25.309Z,8.25
2023-05-05T20:40:53.246Z,8.36
2023-05-05T20:43:21.301Z,8.38
2023-05-05T20:45:49.144Z,8.53
2023-05-05T20:48:16.971Z,8.75
2023-05-05T20:50:44.765Z,8.73
2023-05-05T20:53:16.188Z,8.79
2023-05-05T20:55:43.957Z,9.02
2023-05-05T20:58:11.889Z,9.10
2023-05-05T21:00:39.864Z,9.06
2023-05-05T21:03:07.911Z,8.93
2023-05-05T21:05:37.353Z,8.81
2023-05-05T21:08:05.824Z,8.88
2023-05-05T21:10:34.020Z,8.85
2023-05-05T21:13:03.244Z,8.96
2023-05-05T21:15:32.092Z,9.15
2023-05-05T21:17:59.869Z,9.46
2023-05-05T21:20:27.725Z,9.72
2023-05-05T21:22:56.812Z,9.54
2023-05-05T21:25:25.250Z,9.15
2023-05-05T21:27:53.267Z,9.18
2023-05-05T21:30:23.705Z,9.05
2023-05-05T21:32:52.428Z,9.03
2023-05-05T21:35:20.288Z,9.33
2023-05-05T21:37:49.024Z,9.38
2023-05-05T21:40:16.940Z,9.43
2023-05-05T21:42:44.814Z,9.79
2023-05-05T21:45:12.699Z,10.13
2023-05-05T21:47:40.514Z,10.17
2023-05-05T21:50:10.274Z,9.54
2023-05-05T21:52:38.465Z,8.69
2023-05-05T21:55:07.007Z,8.08
2023-05-05T21:57:34.883Z,7.81
2023-05-05T22:00:05.817Z,7.82
2023-05-05T22:02:33.986Z,7.80
2023-05-05T22:05:01.837Z,7.74
2023-05-05T22:07:31.065Z,7.63
2023-05-05T22:10:00.083Z,7.56
2023-05-05T22:12:27.846Z,7.52
2023-05-05T22:14:55.658Z,7.50
2023-05-05T22:17:23.557Z,7.49
2023-05-05T22:19:51.304Z,7.39
2023-05-05T22:22:19.030Z,7.24
2023-05-05T22:24:46.827Z,7.15
2023-05-05T22:27:14.611Z,7.51
2023-05-05T22:29:42.786Z,8.08
2023-05-05T22:32:10.531Z,8.41
2023-05-05T22:34:38.337Z,8.68
2023-05-05T22:37:06.228Z,8.97
2023-05-05T22:39:34.135Z,8.94
2023-05-05T22:42:02.041Z,8.48
2023-05-05T22:44:29.932Z,8.01
2023-05-05T22:46:57.722Z,7.69
2023-05-05T22:49:25.611Z,7.42
2023-05-05T22:51:53.867Z,7.20
2023-05-05T22:54:21.645Z,7.07
2023-05-05T22:56:49.806Z,7.01
2023-05-05T22:59:17.565Z,6.96
2023-05-05T23:01:45.315Z,6.94
2023-05-05T23:04:13.238Z,6.91
2023-05-05T23:06:42.016Z,6.89
2023-05-05T23:09:09.797Z,6.91
2023-05-05T23:11:37.626Z,6.91
2023-05-05T23:14:05.450Z,6.88
2023-05-05T23:16:33.278Z,6.89
2023-05-05T23:19:01.136Z,6.89
2023-05-05T23:21:29.370Z,6.87
2023-05-05T23:23:59.932Z,6.85
2023-05-05T23:26:27.692Z,6.84
2023-05-05T23:28:55.462Z,6.83
2023-05-05T23:31:23.447Z,6.81
2023-05-05T23:33:51.359Z,6.79
2023-05-05T23:36:19.172Z,6.77
2023-05-05T23:38:46.881Z,6.76
2023-05-05T23:41:14.703Z,6.74
2023-05-05T23:43:42.457Z,6.71
2023-05-05T23:46:10.222Z,6.68
2023-05-05T23:48:38.037Z,6.66
2023-05-05T23:51:05.877Z,6.63
2023-05-05T23:53:33.838Z,6.61
2023-05-05T23:56:01.692Z,6.58
2023-05-05T23:58:29.463Z,6.52
